Time;durP1;ratioP1;P1;durP2;ratioP2;P2;SDS_P1;SDS_P2;PMS_P1;PMS_P2;Temp;Humidity;BMP_temperature;BMP_pressure;BME280_temperature;BME280_humidity;BME280_pressure;Samples;Min_cycle;Max_cycle;Signal;HPM_P1;HPM_P2
2022/10/09 00:01:24;;;;;;;7.28;3.00;;;8.20;99.90;;;;;;5094388;28;20040;-69
2022/10/09 00:03:52;;;;;;;5.38;3.10;;;8.20;99.90;;;;;;5088858;28;20039;-66
2022/10/09 00:06:23;;;;;;;7.97;2.80;;;8.10;99.90;;;;;;5092572;28;22075;-68
2022/10/09 00:08:49;;;;;;;10.45;2.97;;;8.10;99.90;;;;;;5092334;28;20039;-67
2022/10/09 00:11:18;;;;;;;7.45;3.35;;;8.10;99.90;;;;;;5092399;28;20054;-65
2022/10/09 00:13:45;;;;;;;6.20;3.10;;;8.10;99.90;;;;;;5092311;28;20445;-66
2022/10/09 00:16:13;;;;;;;7.75;3.35;;;8.10;99.90;;;;;;5092082;28;20051;-68
2022/10/09 00:18:40;;;;;;;6.57;3.53;;;8.10;99.90;;;;;;5094067;28;20389;-66
2022/10/09 00:21:13;;;;;;;7.53;3.20;;;8.00;99.90;;;;;;5092119;28;20070;-67
2022/10/09 00:23:38;;;;;;;9.02;3.60;;;8.00;99.90;;;;;;5073935;28;20047;-66
2022/10/09 00:26:05;;;;;;;9.88;3.08;;;8.00;99.90;;;;;;5091714;28;20503;-65
2022/10/09 00:28:31;;;;;;;8.05;3.55;;;8.00;99.90;;;;;;5091879;28;20305;-67
2022/10/09 00:30:57;;;;;;;10.43;3.25;;;7.90;99.90;;;;;;5092850;28;20044;-68
2022/10/09 00:33:22;;;;;;;5.85;3.20;;;7.90;99.90;;;;;;5091989;28;20375;-67
2022/10/09 00:35:49;;;;;;;6.35;3.28;;;7.90;99.90;;;;;;5090508;28;20189;-68
2022/10/09 00:38:14;;;;;;;7.43;3.30;;;7.80;99.90;;;;;;5090749;28;20048;-67
2022/10/09 00:40:40;;;;;;;7.57;3.70;;;7.80;99.90;;;;;;5090473;28;20065;-67
2022/10/09 00:43:16;;;;;;;8.55;3.78;;;7.90;99.90;;;;;;5090934;28;20048;-68
2022/10/09 00:45:55;;;;;;;5.97;3.33;;;7.80;99.90;;;;;;5088955;28;20062;-66
2022/10/09 00:48:21;;;;;;;6.15;3.22;;;7.80;99.90;;;;;;5090883;28;20495;-66
2022/10/09 00:50:52;;;;;;;10.02;4.15;;;7.70;99.90;;;;;;5091571;28;20071;-68
2022/10/09 00:53:20;;;;;;;7.22;3.40;;;7.70;99.90;;;;;;5094868;28;20122;-68
2022/10/09 00:55:46;;;;;;;8.18;3.70;;;7.80;99.90;;;;;;5088736;28;20036;-67
2022/10/09 00:58:13;;;;;;;7.75;3.38;;;7.70;99.90;;;;;;5072427;28;20437;-66
2022/10/09 01:00:39;;;;;;;10.35;3.58;;;7.70;99.90;;;;;;5092983;28;20051;-68
2022/10/09 01:03:05;;;;;;;8.07;3.90;;;7.70;99.90;;;;;;5090361;28;20044;-66
2022/10/09 01:05:50;;;;;;;8.43;3.63;;;7.70;99.90;;;;;;5091555;28;20032;-65
2022/10/09 01:08:23;;;;;;;9.88;3.70;;;7.70;99.90;;;;;;5091386;28;20456;-66
2022/10/09 01:11:13;;;;;;;7.75;3.65;;;7.60;99.90;;;;;;5087796;28;20052;-67
2022/10/09 01:13:57;;;;;;;5.63;3.40;;;7.60;99.90;;;;;;4991836;28;20532;-67
2022/10/09 01:16:29;;;;;;;6.40;3.22;;;7.50;99.90;;;;;;4990893;28;20519;-68
2022/10/09 01:19:15;;;;;;;6.80;3.72;;;7.50;99.90;;;;;;4993298;28;20862;-64
2022/10/09 01:21:47;;;;;;;8.88;4.15;;;7.50;99.90;;;;;;4993194;28;20038;-66
2022/10/09 01:24:37;;;;;;;6.88;4.07;;;7.50;99.90;;;;;;4993080;28;20504;-66
2022/10/09 01:27:02;;;;;;;6.45;3.85;;;7.40;99.90;;;;;;4991536;28;20049;-66
2022/10/09 01:29:34;;;;;;;9.10;4.47;;;7.40;99.90;;;;;;4976322;28;20041;-66
2022/10/09 01:32:01;;;;;;;9.30;4.35;;;7.40;99.90;;;;;;4991117;28;20175;-65
2022/10/09 01:34:28;;;;;;;9.38;4.40;;;7.40;99.90;;;;;;4953448;28;1094232;-65
2022/10/09 01:36:56;;;;;;;8.35;4.38;;;7.40;99.90;;;;;;4993530;28;20583;-67
2022/10/09 01:39:24;;;;;;;6.80;4.30;;;7.40;99.90;;;;;;4993965;28;20575;-68
2022/10/09 01:41:52;;;;;;;5.85;4.20;;;7.40;99.90;;;;;;4993049;28;20049;-66
2022/10/09 01:44:30;;;;;;;7.22;4.65;;;7.30;99.90;;;;;;4992590;28;20171;-68
2022/10/09 01:46:57;;;;;;;8.60;4.57;;;7.30;99.90;;;;;;4976743;28;20171;-69
2022/10/09 01:49:44;;;;;;;11.20;5.60;;;7.30;99.90;;;;;;4993559;28;20041;-66
2022/10/09 01:52:25;;;;;;;7.35;5.93;;;7.30;99.90;;;;;;5090163;28;20044;-66
2022/10/09 01:55:02;;;;;;;11.70;6.03;;;7.30;99.90;;;;;;5083676;28;20116;-66
2022/10/09 01:57:37;;;;;;;15.05;6.40;;;7.30;99.90;;;;;;5087501;28;20044;-67
2022/10/09 02:00:08;;;;;;;10.10;6.53;;;7.30;99.90;;;;;;5071867;28;20076;-67
2022/10/09 02:02:35;;;;;;;11.25;7.93;;;7.20;99.90;;;;;;5091941;28;20039;-66
2022/10/09 02:05:01;;;;;;;14.98;8.77;;;7.20;99.90;;;;;;5087400;28;20559;-66
2022/10/09 02:07:28;;;;;;;13.00;8.98;;;7.20;99.90;;;;;;5088520;28;20037;-66
2022/10/09 02:09:56;;;;;;;16.27;9.18;;;7.20;99.90;;;;;;5081936;28;20449;-67
2022/10/09 02:12:23;;;;;;;16.15;9.35;;;7.20;99.90;;;;;;5087691;28;20573;-68
2022/10/09 02:14:49;;;;;;;14.40;9.43;;;7.20;99.90;;;;;;5089156;28;21021;-66
2022/10/09 02:17:18;;;;;;;14.45;9.85;;;7.10;99.90;;;;;;5088724;28;20032;-66
2022/10/09 02:19:51;;;;;;;15.70;9.25;;;7.10;99.90;;;;;;5087998;28;20043;-68
2022/10/09 02:22:24;;;;;;;12.65;8.77;;;7.10;99.90;;;;;;5088619;28;20382;-65
2022/10/09 02:24:51;;;;;;;13.05;8.50;;;7.10;99.90;;;;;;5089988;28;20486;-67
2022/10/09 02:27:19;;;;;;;15.25;8.32;;;7.10;99.90;;;;;;5091837;28;20475;-65
2022/10/09 02:29:45;;;;;;;14.30;8.02;;;7.10;99.90;;;;;;5089693;28;20039;-66
2022/10/09 02:32:11;;;;;;;12.82;7.78;;;7.00;99.90;;;;;;5072583;28;20040;-65
2022/10/09 02:34:38;;;;;;;12.02;7.35;;;7.00;99.90;;;;;;5089843;28;20470;-67
2022/10/09 02:37:04;;;;;;;8.77;6.60;;;7.00;99.90;;;;;;5089627;28;20048;-66
2022/10/09 02:39:29;;;;;;;9.88;6.35;;;7.00;99.90;;;;;;5090658;28;20040;-67
2022/10/09 02:41:55;;;;;;;16.73;6.78;;;7.00;99.90;;;;;;5090036;28;20059;-68
2022/10/09 02:44:21;;;;;;;13.68;6.10;;;7.00;99.90;;;;;;5089313;28;20040;-66
2022/10/09 02:46:46;;;;;;;10.55;5.95;;;7.00;99.90;;;;;;5089847;28;20077;-67
2022/10/09 02:49:12;;;;;;;13.52;6.13;;;7.00;99.90;;;;;;5088434;28;20044;-65
2022/10/09 02:51:38;;;;;;;12.48;6.55;;;6.90;99.90;;;;;;5091825;28;20168;-66
2022/10/09 02:54:04;;;;;;;10.57;5.93;;;6.90;99.90;;;;;;5089360;28;20170;-68
2022/10/09 02:56:29;;;;;;;13.85;5.85;;;6.90;99.90;;;;;;5089278;28;20402;-67
2022/10/09 02:58:55;;;;;;;9.10;5.30;;;6.80;99.90;;;;;;5089489;28;20068;-66
2022/10/09 03:01:22;;;;;;;11.38;5.35;;;6.80;99.90;;;;;;5089325;28;20555;-67
2022/10/09 03:03:47;;;;;;;7.53;4.65;;;6.80;99.90;;;;;;5089280;28;20111;-66
2022/10/09 03:06:16;;;;;;;8.40;4.65;;;6.80;99.90;;;;;;5089175;28;20126;-66
2022/10/09 03:08:44;;;;;;;7.22;4.65;;;6.80;99.90;;;;;;5092551;28;20169;-67
2022/10/09 03:11:11;;;;;;;8.10;4.40;;;6.80;99.90;;;;;;5089293;28;20131;-67
2022/10/09 03:13:38;;;;;;;10.30;4.50;;;6.80;99.90;;;;;;5090353;28;20527;-67
2022/10/09 03:16:10;;;;;;;9.70;4.38;;;6.70;99.90;;;;;;5089353;28;20048;-66
2022/10/09 03:18:36;;;;;;;5.37;3.80;;;6.70;99.90;;;;;;5088913;28;20048;-67
2022/10/09 03:21:13;;;;;;;9.57;4.22;;;6.70;99.90;;;;;;5072033;28;20075;-67
2022/10/09 03:23:39;;;;;;;8.23;4.10;;;6.70;99.90;;;;;;5087853;28;20071;-67
2022/10/09 03:26:10;;;;;;;6.63;3.63;;;6.70;99.90;;;;;;5091618;28;20457;-65
2022/10/09 03:28:38;;;;;;;8.43;3.45;;;6.80;99.90;;;;;;5091238;28;20058;-66
2022/10/09 03:31:05;;;;;;;4.57;3.22;;;6.70;99.90;;;;;;5089312;28;20042;-67
2022/10/09 03:33:30;;;;;;;8.68;3.63;;;6.80;99.90;;;;;;5072379;28;20044;-66
2022/10/09 03:35:56;;;;;;;8.30;3.83;;;6.80;99.90;;;;;;5074007;28;20102;-69
2022/10/09 03:38:22;;;;;;;4.90;3.25;;;6.80;99.90;;;;;;5071977;28;20051;-68
2022/10/09 03:40:47;;;;;;;8.07;3.15;;;6.80;99.90;;;;;;5072198;28;20111;-66
2022/10/09 03:43:13;;;;;;;4.40;3.00;;;6.70;99.90;;;;;;5073388;28;20135;-66
2022/10/09 03:45:40;;;;;;;5.22;2.75;;;6.80;99.90;;;;;;5068311;28;20486;-67
2022/10/09 03:48:06;;;;;;;9.00;3.22;;;6.70;99.90;;;;;;5069096;28;20058;-67
2022/10/09 03:50:32;;;;;;;6.18;3.03;;;6.70;99.90;;;;;;5070305;28;20044;-68
2022/10/09 03:52:57;;;;;;;4.53;2.67;;;6.70;99.90;;;;;;5069698;28;20115;-66
2022/10/09 03:55:23;;;;;;;5.82;2.90;;;6.70;99.90;;;;;;5069799;28;20124;-66
2022/10/09 03:57:48;;;;;;;4.85;2.85;;;6.60;99.90;;;;;;5069791;28;20071;-64
2022/10/09 04:00:14;;;;;;;8.40;3.58;;;6.60;99.90;;;;;;5089684;28;20036;-68
2022/10/09 04:02:40;;;;;;;7.47;3.30;;;6.60;99.90;;;;;;5071400;28;20155;-66
2022/10/09 04:05:06;;;;;;;4.88;2.85;;;6.50;99.90;;;;;;5069176;28;20040;-65
2022/10/09 04:07:31;;;;;;;5.10;3.13;;;6.50;99.90;;;;;;5071379;28;20489;-67
2022/10/09 04:09:57;;;;;;;7.20;3.00;;;6.50;99.90;;;;;;5071637;28;20036;-66
2022/10/09 04:12:23;;;;;;;6.20;3.40;;;6.40;99.90;;;;;;5071337;28;20036;-65
2022/10/09 04:14:48;;;;;;;4.18;2.72;;;6.40;99.90;;;;;;5071329;28;20181;-67
2022/10/09 04:17:14;;;;;;;6.43;3.25;;;6.30;99.90;;;;;;5071968;28;20033;-67
2022/10/09 04:19:39;;;;;;;4.50;2.67;;;6.30;99.90;;;;;;5071158;28;20410;-66
2022/10/09 04:22:05;;;;;;;5.18;3.20;;;6.30;99.90;;;;;;5073983;28;20036;-66
2022/10/09 04:24:31;;;;;;;4.97;3.00;;;6.20;99.90;;;;;;5094773;28;20036;-66
2022/10/09 04:26:56;;;;;;;5.75;2.80;;;6.20;99.90;;;;;;5075212;28;20042;-65
2022/10/09 04:29:22;;;;;;;6.25;2.80;;;6.20;99.90;;;;;;5074853;28;20486;-69
2022/10/09 04:31:47;;;;;;;6.90;2.97;;;6.20;99.90;;;;;;5075096;28;20467;-65
2022/10/09 04:34:13;;;;;;;5.18;3.38;;;6.10;99.90;;;;;;5075817;28;20113;-67
2022/10/09 04:36:39;;;;;;;7.35;3.45;;;6.10;99.90;;;;;;5091700;28;20048;-67
2022/10/09 04:39:04;;;;;;;5.60;3.55;;;6.10;99.90;;;;;;5092176;28;20093;-68
2022/10/09 04:41:30;;;;;;;4.88;3.17;;;6.10;99.90;;;;;;5091930;28;20042;-65
2022/10/09 04:43:56;;;;;;;5.63;3.42;;;6.10;99.90;;;;;;5092032;28;20371;-66
2022/10/09 04:46:22;;;;;;;6.57;3.40;;;6.10;99.90;;;;;;5091777;28;20066;-67
2022/10/09 04:48:49;;;;;;;6.05;3.25;;;6.00;99.90;;;;;;5091750;28;20382;-66
2022/10/09 04:51:16;;;;;;;8.32;3.30;;;6.00;99.90;;;;;;5092984;28;20131;-68
2022/10/09 04:53:43;;;;;;;6.03;3.40;;;6.10;99.90;;;;;;5091660;28;20058;-67
2022/10/09 04:56:12;;;;;;;3.97;2.90;;;6.00;99.90;;;;;;5091551;28;20047;-67
2022/10/09 04:58:41;;;;;;;5.60;3.20;;;6.00;99.90;;;;;;5091490;28;20437;-66
2022/10/09 05:01:10;;;;;;;9.10;3.22;;;6.00;99.90;;;;;;5095482;28;20063;-66
2022/10/09 05:03:36;;;;;;;4.55;2.95;;;6.00;99.90;;;;;;5091405;28;20035;-69
2022/10/09 05:06:07;;;;;;;4.70;2.85;;;6.00;99.90;;;;;;5091559;28;20435;-68
2022/10/09 05:08:33;;;;;;;4.72;2.78;;;6.00;99.90;;;;;;5090674;28;20420;-66
2022/10/09 05:11:08;;;;;;;5.63;2.78;;;6.00;99.90;;;;;;5091080;28;20051;-66
2022/10/09 05:13:37;;;;;;;5.03;3.00;;;6.00;99.90;;;;;;5091968;28;20570;-66
2022/10/09 05:16:05;;;;;;;4.88;3.47;;;6.00;99.90;;;;;;5075146;28;20047;-67
2022/10/09 05:18:30;;;;;;;6.72;3.78;;;6.00;99.90;;;;;;5090870;28;20048;-67
2022/10/09 05:20:56;;;;;;;8.18;3.60;;;5.90;99.90;;;;;;5089806;28;20047;-67
2022/10/09 05:23:22;;;;;;;11.20;4.53;;;6.00;99.90;;;;;;5093766;28;20063;-66
2022/10/09 05:25:59;;;;;;;9.73;3.92;;;6.00;99.90;;;;;;5091356;28;20047;-66
2022/10/09 05:28:25;;;;;;;8.25;4.57;;;6.00;99.90;;;;;;5092339;28;20106;-66
2022/10/09 05:30:50;;;;;;;8.52;4.85;;;6.10;99.90;;;;;;5090889;28;20043;-67
2022/10/09 05:33:16;;;;;;;13.80;5.00;;;6.10;99.90;;;;;;5068682;28;20055;-67
2022/10/09 05:35:56;;;;;;;6.88;4.50;;;6.10;99.90;;;;;;5090846;28;20161;-66
2022/10/09 05:38:23;;;;;;;6.97;4.38;;;6.10;99.90;;;;;;5069352;28;20060;-66
2022/10/09 05:40:57;;;;;;;9.73;4.85;;;6.10;99.90;;;;;;5087412;28;20413;-66
2022/10/09 05:43:32;;;;;;;8.93;5.00;;;6.10;99.90;;;;;;5090634;28;20039;-67
2022/10/09 05:46:13;;;;;;;7.28;4.68;;;6.10;99.90;;;;;;5090385;28;20139;-66
2022/10/09 05:48:41;;;;;;;8.52;4.75;;;6.10;99.90;;;;;;5091934;28;20048;-66
2022/10/09 05:51:10;;;;;;;7.45;4.18;;;6.10;99.90;;;;;;5073825;28;20510;-65
2022/10/09 05:53:36;;;;;;;11.57;4.65;;;6.10;99.90;;;;;;5089620;28;20638;-68
2022/10/09 05:56:30;;;;;;;11.43;5.07;;;6.10;99.90;;;;;;5090321;28;20061;-68
2022/10/09 05:59:00;;;;;;;9.93;4.47;;;6.10;99.90;;;;;;5086379;28;20180;-64
2022/10/09 06:01:28;;;;;;;8.60;4.88;;;6.10;99.90;;;;;;5090470;28;20036;-65
2022/10/09 06:03:56;;;;;;;8.18;4.45;;;6.20;99.90;;;;;;5073168;28;20040;-65
2022/10/09 06:06:24;;;;;;;9.20;5.68;;;6.20;99.90;;;;;;5089368;28;20181;-67
2022/10/09 06:08:50;;;;;;;8.07;4.75;;;6.20;99.90;;;;;;5089398;28;20367;-66
2022/10/09 06:11:18;;;;;;;9.15;4.55;;;6.20;99.90;;;;;;5090198;28;20052;-64
2022/10/09 06:13:44;;;;;;;9.02;4.60;;;6.20;99.90;;;;;;5091059;28;20036;-65
2022/10/09 06:16:12;;;;;;;7.75;4.60;;;6.20;99.90;;;;;;5091558;28;20028;-65
2022/10/09 06:18:39;;;;;;;6.28;4.32;;;6.30;99.90;;;;;;5090140;28;20128;-64
2022/10/09 06:21:05;;;;;;;8.45;5.10;;;6.30;99.90;;;;;;5089921;28;20047;-65
2022/10/09 06:23:31;;;;;;;8.43;4.72;;;6.30;99.90;;;;;;5088764;28;20398;-67
2022/10/09 06:26:02;;;;;;;9.25;4.65;;;6.30;99.90;;;;;;5089972;28;20097;-66
2022/10/09 06:28:29;;;;;;;7.53;4.72;;;6.30;99.90;;;;;;5089730;28;20153;-65
2022/10/09 06:31:06;;;;;;;11.15;5.28;;;6.40;99.90;;;;;;5089778;28;20040;-67
2022/10/09 06:33:33;;;;;;;10.00;5.00;;;6.40;99.90;;;;;;5088887;28;20035;-65
2022/10/09 06:36:07;;;;;;;12.20;5.03;;;6.50;99.90;;;;;;5072721;28;20075;-68
2022/10/09 06:38:34;;;;;;;12.15;6.18;;;6.50;99.90;;;;;;5090585;28;20124;-67
2022/10/09 06:41:05;;;;;;;11.15;5.93;;;6.50;99.90;;;;;;5090402;28;20399;-65
2022/10/09 06:43:31;;;;;;;9.75;6.35;;;6.60;99.90;;;;;;5089248;28;20044;-65
2022/10/09 06:46:00;;;;;;;11.50;6.30;;;6.70;99.90;;;;;;5088413;28;20085;-66
2022/10/09 06:48:31;;;;;;;9.73;5.72;;;6.70;99.90;;;;;;5091018;28;20040;-67
2022/10/09 06:51:01;;;;;;;7.65;4.82;;;6.80;99.90;;;;;;5089003;28;20040;-65
2022/10/09 06:53:26;;;;;;;10.02;5.63;;;6.90;99.90;;;;;;5088084;28;20367;-66
2022/10/09 06:55:53;;;;;;;13.10;6.20;;;7.00;99.90;;;;;;5088707;28;20047;-65
2022/10/09 06:58:19;;;;;;;10.88;5.10;;;7.00;99.90;;;;;;5087809;28;20032;-67
2022/10/09 07:00:45;;;;;;;9.32;5.80;;;7.10;99.90;;;;;;5088287;28;20549;-66
2022/10/09 07:03:10;;;;;;;9.23;5.70;;;7.20;99.90;;;;;;5087919;28;20040;-67
2022/10/09 07:05:36;;;;;;;10.77;5.70;;;7.30;99.90;;;;;;5087473;28;20031;-67
2022/10/09 07:08:01;;;;;;;10.85;5.60;;;7.40;99.90;;;;;;5088585;28;20050;-65
2022/10/09 07:10:27;;;;;;;10.43;5.45;;;7.50;99.90;;;;;;5087931;28;20048;-65
2022/10/09 07:12:53;;;;;;;12.23;5.20;;;7.60;99.90;;;;;;5089193;28;20036;-64
2022/10/09 07:15:18;;;;;;;13.00;4.95;;;7.70;99.90;;;;;;5089015;28;20048;-65
2022/10/09 07:17:44;;;;;;;14.57;5.43;;;7.80;99.90;;;;;;5071855;28;20402;-65
2022/10/09 07:20:10;;;;;;;9.98;5.50;;;7.90;99.90;;;;;;5088116;28;20486;-66
2022/10/09 07:22:35;;;;;;;14.98;6.13;;;7.90;99.90;;;;;;5088539;28;20097;-65
2022/10/09 07:25:02;;;;;;;16.83;8.57;;;8.00;99.90;;;;;;5089196;28;20123;-66
2022/10/09 07:27:27;;;;;;;11.45;6.10;;;8.10;99.90;;;;;;5088045;28;20032;-68
2022/10/09 07:29:53;;;;;;;12.32;6.20;;;8.20;99.90;;;;;;5088256;28;20379;-66
2022/10/09 07:32:19;;;;;;;11.57;6.32;;;8.30;99.90;;;;;;5088461;28;20036;-68
2022/10/09 07:34:44;;;;;;;13.23;6.60;;;8.30;99.90;;;;;;5071377;28;20043;-67
2022/10/09 07:37:10;;;;;;;12.45;5.95;;;8.40;99.90;;;;;;5086975;28;20048;-65
2022/10/09 07:39:35;;;;;;;16.58;6.68;;;8.50;99.90;;;;;;5090819;28;20040;-64
2022/10/09 07:42:02;;;;;;;10.27;6.07;;;8.60;99.90;;;;;;5087453;28;20043;-67
2022/10/09 07:44:28;;;;;;;11.00;6.63;;;8.70;99.90;;;;;;5087557;28;20036;-67
2022/10/09 07:46:53;;;;;;;10.02;6.13;;;8.80;99.90;;;;;;5087801;28;20123;-66
2022/10/09 07:49:19;;;;;;;9.27;5.57;;;9.00;99.90;;;;;;5088013;28;20048;-65
2022/10/09 07:51:45;;;;;;;10.70;5.82;;;9.10;99.90;;;;;;5086638;28;20079;-66
2022/10/09 07:54:11;;;;;;;9.43;5.57;;;9.20;99.90;;;;;;5088805;28;20052;-64
2022/10/09 07:56:37;;;;;;;10.88;5.65;;;9.30;99.90;;;;;;5087881;28;20050;-68
2022/10/09 07:59:13;;;;;;;11.05;6.10;;;9.40;99.90;;;;;;5092256;28;20044;-66
2022/10/09 08:01:40;;;;;;;11.15;6.03;;;9.60;99.90;;;;;;5092096;28;20036;-64
2022/10/09 08:04:05;;;;;;;11.45;5.70;;;9.70;99.90;;;;;;5093363;28;20444;-67
2022/10/09 08:06:31;;;;;;;11.95;6.20;;;9.70;99.90;;;;;;5092165;28;20044;-67
2022/10/09 08:08:58;;;;;;;11.70;6.45;;;9.80;99.90;;;;;;5093137;28;20458;-66
2022/10/09 08:11:25;;;;;;;9.10;6.20;;;9.90;99.90;;;;;;5092704;28;20047;-65
2022/10/09 08:13:51;;;;;;;10.75;6.28;;;10.00;99.90;;;;;;5093777;28;20500;-66
2022/10/09 08:16:18;;;;;;;9.55;6.20;;;10.10;99.90;;;;;;5093759;28;20118;-65
2022/10/09 08:18:44;;;;;;;8.68;5.75;;;10.20;99.90;;;;;;5091863;28;20390;-64
2022/10/09 08:21:12;;;;;;;11.15;6.30;;;10.30;99.90;;;;;;5092571;28;20047;-67
2022/10/09 08:23:38;;;;;;;11.93;6.05;;;10.40;99.90;;;;;;5091206;28;20040;-65
2022/10/09 08:26:10;;;;;;;9.32;6.20;;;10.50;99.90;;;;;;5089354;28;20044;-66
2022/10/09 08:28:36;;;;;;;9.55;5.50;;;10.60;99.90;;;;;;5090365;28;20100;-65
2022/10/09 08:31:13;;;;;;;9.93;5.85;;;10.80;99.90;;;;;;5090260;28;20047;-68
2022/10/09 08:33:38;;;;;;;10.45;5.68;;;11.00;99.90;;;;;;5090834;28;20410;-67
2022/10/09 08:36:06;;;;;;;11.73;6.40;;;11.20;99.90;;;;;;5090494;28;20048;-65
2022/10/09 08:38:33;;;;;;;22.55;10.05;;;11.40;99.90;;;;;;5092103;28;20040;-66
2022/10/09 08:41:08;;;;;;;14.43;6.03;;;11.50;99.90;;;;;;5091520;28;20044;-66
2022/10/09 08:43:38;;;;;;;13.55;5.60;;;11.60;99.90;;;;;;5091988;28;20036;-67
2022/10/09 08:46:17;;;;;;;9.43;4.88;;;11.80;99.90;;;;;;5093145;28;20036;-65
2022/10/09 08:48:45;;;;;;;9.02;5.22;;;11.90;99.90;;;;;;5091842;28;20036;-65
2022/10/09 08:51:26;;;;;;;12.15;5.28;;;12.20;99.90;;;;;;5091215;28;20040;-68
2022/10/09 08:54:02;;;;;;;9.35;4.70;;;12.50;99.90;;;;;;5079379;28;20048;-67
2022/10/09 08:56:29;;;;;;;10.98;5.97;;;12.60;99.90;;;;;;5091507;28;20114;-64
2022/10/09 08:58:55;;;;;;;8.23;4.90;;;12.70;99.90;;;;;;5090666;28;20051;-67
2022/10/09 09:01:31;;;;;;;10.57;5.25;;;12.80;99.90;;;;;;5072465;28;20074;-67
2022/10/09 09:04:02;;;;;;;12.35;4.75;;;12.80;99.90;;;;;;5088869;28;20478;-67
2022/10/09 09:06:33;;;;;;;6.00;4.45;;;12.80;99.90;;;;;;5089331;28;20111;-66
2022/10/09 09:09:21;;;;;;;9.07;4.63;;;13.00;99.90;;;;;;5094268;28;20043;-66
2022/10/09 09:12:07;;;;;;;9.63;4.90;;;13.20;99.90;;;;;;5078669;28;20447;-68
2022/10/09 09:14:42;;;;;;;10.68;3.95;;;13.40;99.90;;;;;;5092782;28;20047;-67
2022/10/09 09:17:38;;;;;;;12.75;4.38;;;13.50;99.90;;;;;;5090089;28;20059;-66
2022/10/09 09:20:11;;;;;;;11.02;3.75;;;13.70;99.90;;;;;;5083849;28;20500;-65
2022/10/09 09:22:44;;;;;;;11.13;3.80;;;13.90;99.90;;;;;;5085717;28;20122;-68
2022/10/09 09:25:20;;;;;;;10.02;3.97;;;14.10;99.90;;;;;;5073188;28;20047;-67
2022/10/09 09:27:47;;;;;;;10.60;4.18;;;14.30;99.90;;;;;;5091879;28;21508;-67
2022/10/09 09:30:17;;;;;;;8.23;3.63;;;14.40;99.90;;;;;;5067569;28;20082;-67
2022/10/09 09:33:09;;;;;;;7.88;3.92;;;14.50;99.90;;;;;;5087655;28;20047;-68
2022/10/09 09:35:56;;;;;;;7.50;3.60;;;14.60;99.90;;;;;;4975599;28;20092;-68
2022/10/09 09:38:21;;;;;;;8.60;3.38;;;14.70;99.90;;;;;;4992577;28;20046;-67
2022/10/09 09:40:49;;;;;;;7.05;2.92;;;14.90;99.90;;;;;;4993825;28;20080;-67
2022/10/09 09:43:20;;;;;;;10.57;3.20;;;15.10;99.90;;;;;;4993407;28;20077;-65
2022/10/09 09:45:47;;;;;;;6.70;3.08;;;15.20;99.90;;;;;;4993968;28;20084;-65
2022/10/09 09:48:31;;;;;;;13.48;4.03;;;15.40;99.90;;;;;;4993330;28;20404;-65
2022/10/09 09:50:57;;;;;;;9.00;3.30;;;15.70;99.90;;;;;;4993118;28;20041;-65
2022/10/09 09:53:26;;;;;;;8.07;2.90;;;15.80;99.90;;;;;;4992502;28;20112;-64
2022/10/09 09:55:53;;;;;;;5.75;2.40;;;16.00;99.90;;;;;;4993566;28;20046;-66
2022/10/09 09:58:20;;;;;;;7.47;2.90;;;16.10;99.90;;;;;;4993135;28;20058;-67
2022/10/09 10:01:00;;;;;;;8.95;3.00;;;16.10;99.90;;;;;;4993669;28;20412;-67
2022/10/09 10:03:26;;;;;;;12.70;4.25;;;16.20;99.90;;;;;;4993503;28;20042;-65
2022/10/09 10:05:52;;;;;;;12.25;4.00;;;16.40;99.90;;;;;;4993586;28;20058;-67
2022/10/09 10:08:28;;;;;;;8.90;3.22;;;16.50;99.90;;;;;;4993354;28;20045;-68
2022/10/09 10:10:59;;;;;;;12.93;3.45;;;16.80;99.90;;;;;;4993421;28;20037;-65
2022/10/09 10:13:45;;;;;;;8.55;3.30;;;16.90;99.90;;;;;;5073639;28;20433;-67
2022/10/09 10:16:30;;;;;;;9.65;3.00;;;16.90;99.90;;;;;;5090805;28;20442;-65
2022/10/09 10:18:57;;;;;;;9.52;3.35;;;17.00;99.90;;;;;;5089808;28;20062;-66
2022/10/09 10:21:22;;;;;;;10.38;3.40;;;17.20;99.90;;;;;;5089653;28;20122;-65
2022/10/09 10:24:02;;;;;;;9.75;3.08;;;17.30;99.90;;;;;;5090243;28;20135;-65
2022/10/09 10:26:40;;;;;;;14.10;3.50;;;17.30;99.90;;;;;;5090069;28;20044;-68
2022/10/09 10:29:18;;;;;;;8.57;3.15;;;17.50;99.90;;;;;;5073626;28;20048;-68
2022/10/09 10:31:54;;;;;;;10.75;3.28;;;17.80;99.90;;;;;;5090460;28;20048;-67
2022/10/09 10:34:25;;;;;;;8.02;3.35;;;17.90;99.90;;;;;;5089849;28;20117;-65
2022/10/09 10:37:04;;;;;;;9.38;3.42;;;18.00;99.90;;;;;;5090466;28;20371;-67
2022/10/09 10:39:40;;;;;;;8.15;3.83;;;18.30;99.90;;;;;;5089750;28;20082;-68
2022/10/09 10:42:15;;;;;;;10.25;3.10;;;18.40;99.90;;;;;;5090338;28;20474;-66
2022/10/09 10:45:03;;;;;;;9.75;3.30;;;18.50;99.90;;;;;;5064079;28;20101;-68
2022/10/09 10:47:34;;;;;;;10.43;3.70;;;18.70;99.90;;;;;;5090928;28;20076;-68
2022/10/09 10:50:01;;;;;;;8.05;2.95;;;18.80;99.90;;;;;;5090051;28;20394;-67
2022/10/09 10:52:52;;;;;;;6.60;3.10;;;18.80;99.90;;;;;;5089517;28;20062;-68
2022/10/09 10:55:25;;;;;;;11.23;4.40;;;18.90;99.90;;;;;;5090344;28;20375;-69
2022/10/09 10:57:58;;;;;;;14.27;4.22;;;19.00;99.90;;;;;;5089664;28;20040;-66
2022/10/09 11:00:26;;;;;;;9.40;3.97;;;19.20;99.90;;;;;;5089784;28;20040;-68
2022/10/09 11:03:29;;;;;;;8.90;4.80;;;19.30;99.90;;;;;;5089745;28;20111;-68
2022/10/09 11:06:02;;;;;;;;;;;19.50;99.90;;;;;;5090090;28;20035;-67
2022/10/09 11:08:38;;;;;;;10.52;3.53;;;19.70;99.30;;;;;;5089578;28;20362;-68
2022/10/09 11:11:22;;;;;;;8.45;3.05;;;19.70;98.20;;;;;;5086829;28;20506;-66
2022/10/09 11:14:12;;;;;;;9.85;3.33;;;19.50;98.20;;;;;;5090011;28;20486;-68
2022/10/09 11:17:02;;;;;;;8.38;3.08;;;19.30;97.80;;;;;;5089102;28;20044;-65
2022/10/09 11:19:59;;;;;;;7.47;3.28;;;19.40;97.80;;;;;;5071536;28;20047;-64
2022/10/09 11:22:59;;;;;;;8.15;3.15;;;19.40;98.00;;;;;;5089244;28;20051;-66
2022/10/09 11:25:59;;;;;;;8.20;3.30;;;19.70;97.70;;;;;;5089598;28;20044;-68
2022/10/09 11:28:36;;;;;;;12.48;3.47;;;19.80;98.00;;;;;;4991700;28;20065;-65
2022/10/09 11:31:15;;;;;;;7.70;3.00;;;19.50;96.20;;;;;;5010553;28;20045;-66
2022/10/09 11:33:49;;;;;;;9.50;3.40;;;19.50;97.30;;;;;;4995700;28;20041;-66
2022/10/09 11:36:39;;;;;;;10.68;3.50;;;19.30;96.70;;;;;;4996014;28;20054;-67
2022/10/09 11:39:14;;;;;;;12.38;3.40;;;19.40;96.70;;;;;;4995613;28;20425;-67
2022/10/09 11:41:40;;;;;;;11.65;3.33;;;19.40;97.30;;;;;;4995431;28;20041;-67
2022/10/09 11:44:18;;;;;;;7.45;2.95;;;19.30;97.10;;;;;;4979560;28;20045;-69
2022/10/09 11:47:08;;;;;;;9.48;3.45;;;19.20;97.20;;;;;;4995974;28;20042;-67
2022/10/09 11:49:42;;;;;;;11.15;3.65;;;19.10;97.10;;;;;;4979412;28;20061;-66
2022/10/09 11:52:20;;;;;;;8.48;3.17;;;18.70;96.50;;;;;;4995801;28;20052;-67
2022/10/09 11:54:46;;;;;;;9.70;3.08;;;18.30;96.20;;;;;;4995594;28;20378;-68
2022/10/09 11:57:12;;;;;;;12.45;3.75;;;18.10;96.90;;;;;;4995812;28;20060;-67
2022/10/09 11:59:41;;;;;;;9.45;3.00;;;17.80;96.60;;;;;;4979050;28;20148;-67
2022/10/09 12:02:27;;;;;;;7.15;2.95;;;17.60;96.70;;;;;;5012124;28;20042;-68
2022/10/09 12:04:53;;;;;;;8.82;2.80;;;17.20;96.40;;;;;;5032039;28;20047;-67
2022/10/09 12:07:32;;;;;;;8.05;3.00;;;17.10;97.70;;;;;;5093085;28;20071;-68
2022/10/09 12:10:07;;;;;;;7.55;2.85;;;17.10;97.80;;;;;;5094047;28;20494;-67
2022/10/09 12:12:36;;;;;;;11.02;3.33;;;17.00;97.50;;;;;;5076227;28;20051;-68
2022/10/09 12:15:27;;;;;;;6.63;2.47;;;16.90;97.80;;;;;;5092818;28;20051;-66
2022/10/09 12:17:53;;;;;;;7.13;2.75;;;16.80;97.90;;;;;;5092578;28;20079;-67
2022/10/09 12:20:23;;;;;;;9.95;3.35;;;16.70;97.50;;;;;;5092879;28;20457;-66
2022/10/09 12:22:54;;;;;;;8.00;2.65;;;16.50;97.30;;;;;;5092688;28;20074;-67
2022/10/09 12:25:37;;;;;;;7.30;2.80;;;16.40;98.00;;;;;;5093018;28;20078;-66
2022/10/09 12:28:04;;;;;;;8.07;2.55;;;16.40;98.00;;;;;;5092598;28;20507;-68
2022/10/09 12:30:39;;;;;;;9.15;2.45;;;16.30;98.40;;;;;;5092541;28;20044;-68
2022/10/09 12:33:20;;;;;;;9.27;3.53;;;16.40;98.70;;;;;;5092392;28;20044;-66
2022/10/09 12:35:56;;;;;;;9.88;2.80;;;16.50;97.90;;;;;;5092096;28;20056;-67
2022/10/09 12:38:28;;;;;;;7.38;2.20;;;16.40;97.50;;;;;;5092784;28;20048;-67
2022/10/09 12:40:56;;;;;;;8.27;2.30;;;16.30;97.60;;;;;;5092317;28;20036;-67
2022/10/09 12:43:22;;;;;;;6.70;2.33;;;16.20;97.60;;;;;;5091769;28;20109;-65
2022/10/09 12:45:50;;;;;;;6.53;2.22;;;16.10;97.60;;;;;;5075503;28;20047;-66
2022/10/09 12:48:20;;;;;;;6.25;2.00;;;16.10;97.80;;;;;;5092443;28;20043;-67
2022/10/09 12:50:46;;;;;;;7.43;2.55;;;16.20;97.90;;;;;;5092497;28;20032;-66
2022/10/09 12:53:17;;;;;;;8.07;2.22;;;16.70;97.90;;;;;;5092280;28;20048;-68
2022/10/09 12:55:58;;;;;;;7.65;2.45;;;17.00;97.80;;;;;;5092197;28;20040;-65
2022/10/09 12:58:31;;;;;;;9.68;2.70;;;17.10;97.50;;;;;;5092042;28;20044;-67
2022/10/09 13:00:59;;;;;;;5.65;2.63;;;16.80;97.10;;;;;;5085514;28;20421;-66
2022/10/09 13:03:38;;;;;;;7.40;2.30;;;16.60;97.10;;;;;;5091062;28;20502;-66
2022/10/09 13:06:16;;;;;;;7.15;2.50;;;16.40;97.00;;;;;;5091318;28;20043;-67
2022/10/09 13:08:43;;;;;;;8.52;2.30;;;16.40;97.20;;;;;;5086993;28;20498;-69